createdAt,value
2018-02-11T00:02:08.304Z,100945.17
2018-02-11T00:04:35.928Z,100937.50
2018-02-11T00:07:03.568Z,100931.95
2018-02-11T00:09:31.188Z,100931.52
2018-02-11T00:11:58.893Z,100923.76
2018-02-11T00:14:26.503Z,100926.84
2018-02-11T00:16:54.141Z,100925.94
2018-02-11T00:19:21.772Z,100919.95
2018-02-11T00:21:49.440Z,100914.44
2018-02-11T00:24:17.057Z,100915.25
2018-02-11T00:26:44.693Z,100912.66
2018-02-11T00:29:12.304Z,100906.73
2018-02-11T00:31:39.934Z,100904.62
2018-02-11T00:34:07.552Z,100892.68
2018-02-11T00:36:35.319Z,100895.67
2018-02-11T00:39:02.932Z,100891.43
2018-02-11T00:41:30.645Z,100891.96
2018-02-11T00:43:58.300Z,100890.71
2018-02-11T00:46:25.960Z,100890.34
2018-02-11T00:48:53.628Z,100885.70
2018-02-11T00:51:21.284Z,100886.16
2018-02-11T00:53:48.920Z,100878.90
2018-02-11T00:56:16.559Z,100886.22
2018-02-11T00:58:44.197Z,100880.73
2018-02-11T01:01:11.833Z,100886.38
2018-02-11T01:03:39.472Z,100879.27
2018-02-11T01:06:07.160Z,100877.59
2018-02-11T01:08:34.829Z,100875.53
2018-02-11T01:11:02.443Z,100872.69
2018-02-11T01:13:30.075Z,100870.63
2018-02-11T01:15:57.688Z,100863.87
2018-02-11T01:18:25.437Z,100854.98
2018-02-11T01:20:53.140Z,100851.20
2018-02-11T01:23:20.780Z,100838.04
2018-02-11T01:28:15.408Z,100826.63
2018-02-11T01:35:36.988Z,100827.59
2018-02-11T01:38:04.604Z,100823.78
2018-02-11T01:40:32.245Z,100817.80
2018-02-11T01:42:59.864Z,100817.36
2018-02-11T01:45:27.504Z,100811.84
2018-02-11T01:47:55.120Z,100805.36
2018-02-11T01:50:22.847Z,100798.96
2018-02-11T01:52:50.511Z,100800.23
2018-02-11T01:55:18.173Z,100800.67
2018-02-11T01:57:45.796Z,100790.86
2018-02-11T02:00:13.444Z,100788.20
2018-02-11T02:02:41.160Z,100785.63
2018-02-11T02:05:08.801Z,100788.55
2018-02-11T02:07:36.416Z,100781.67
2018-02-11T02:10:04.064Z,100782.08
2018-02-11T02:12:31.685Z,100779.86
2018-02-11T02:14:59.365Z,100777.30
2018-02-11T02:17:27.028Z,100778.20
2018-02-11T02:19:54.684Z,100770.10
2018-02-11T02:22:22.329Z,100761.52
2018-02-11T02:24:50.016Z,100765.80
2018-02-11T02:27:17.681Z,100758.13
2018-02-11T02:29:45.345Z,100752.64
2018-02-11T02:32:12.989Z,100742.76
2018-02-11T02:34:40.672Z,100738.92
2018-02-11T02:37:08.308Z,100728.28
2018-02-11T02:39:35.919Z,100720.59
2018-02-11T02:42:03.646Z,100715.86
2018-02-11T02:44:31.315Z,100714.08
2018-02-11T02:46:58.988Z,100703.41
2018-02-11T02:49:26.652Z,100696.56
2018-02-11T02:51:54.317Z,100696.59
2018-02-11T02:54:21.937Z,100702.52
2018-02-11T02:56:49.558Z,100694.33
2018-02-11T02:59:17.291Z,100691.80
2018-02-11T03:01:44.904Z,100687.87
2018-02-11T03:04:12.548Z,100681.89
2018-02-11T03:06:40.160Z,100675.88
2018-02-11T03:09:07.796Z,100667.66
2018-02-11T03:11:35.504Z,100663.70
2018-02-11T03:14:03.177Z,100660.59
2018-02-11T03:16:30.797Z,100661.64
2018-02-11T03:18:58.492Z,100652.95
2018-02-11T03:21:26.155Z,100653.67
2018-02-11T03:23:53.811Z,100655.71
2018-02-11T03:26:21.479Z,100648.48
2018-02-11T03:28:49.113Z,100649.34
2018-02-11T03:31:16.741Z,100644.27
2018-02-11T03:33:44.386Z,100643.95
2018-02-11T03:36:12.037Z,100632.94
2018-02-11T03:38:39.676Z,100638.52
2018-02-11T03:41:07.356Z,100638.20
2018-02-11T03:43:35.006Z,100630.16
2018-02-11T03:46:02.627Z,100620.89
2018-02-11T03:48:30.352Z,100626.95
2018-02-11T03:50:57.998Z,100627.08
2018-02-11T03:53:25.620Z,100625.41
2018-02-11T03:55:53.341Z,100611.44
2018-02-11T03:58:20.956Z,100608.97
2018-02-11T04:00:48.657Z,100605.19
2018-02-11T04:03:16.329Z,100603.13
2018-02-11T04:05:43.970Z,100592.52
2018-02-11T04:08:11.575Z,100598.56
2018-02-11T04:10:39.311Z,100595.17
2018-02-11T04:13:06.967Z,100581.98
2018-02-11T04:15:34.608Z,100574.77
2018-02-11T04:18:02.221Z,100579.85
2018-02-11T04:20:29.860Z,100579.07
2018-02-11T04:22:57.471Z,100582.44
2018-02-11T04:25:25.116Z,100578.23
2018-02-11T04:27:52.736Z,100579.99
2018-02-11T04:30:20.375Z,100579.99
2018-02-11T04:32:48.006Z,100576.24
2018-02-11T04:35:15.622Z,100572.00
2018-02-11T04:37:43.300Z,100569.53
2018-02-11T04:40:10.917Z,100564.88
2018-02-11T04:42:38.624Z,100556.36
2018-02-11T04:45:06.293Z,100549.19
2018-02-11T04:47:33.952Z,100540.17
2018-02-11T04:50:01.570Z,100533.34
2018-02-11T04:52:29.204Z,100528.20
2018-02-11T04:54:56.813Z,100523.02
2018-02-11T04:57:24.491Z,100512.33
2018-02-11T04:59:52.106Z,100514.01
2018-02-11T05:02:19.825Z,100509.31
2018-02-11T05:04:47.492Z,100505.80
2018-02-11T05:07:15.111Z,100498.02
2018-02-11T05:09:42.812Z,100493.69
2018-02-11T05:12:10.473Z,100496.66
2018-02-11T05:14:38.141Z,100491.98
2018-02-11T05:17:05.757Z,100494.09
2018-02-11T05:19:33.392Z,100496.33
2018-02-11T05:22:01.024Z,100492.95
2018-02-11T05:24:28.679Z,100481.92
2018-02-11T05:26:56.344Z,100484.80
2018-02-11T05:29:23.989Z,100480.42
2018-02-11T05:31:51.682Z,100476.83
2018-02-11T05:34:19.351Z,100464.23
2018-02-11T05:36:46.959Z,100459.81
2018-02-11T05:39:14.567Z,100455.27
2018-02-11T05:41:42.225Z,100457.63
2018-02-11T05:44:09.840Z,100451.05
2018-02-11T05:46:37.553Z,100447.52
2018-02-11T05:49:05.217Z,100446.02
2018-02-11T05:51:32.856Z,100438.13
2018-02-11T05:54:00.475Z,100440.00
2018-02-11T05:56:28.108Z,100435.39
2018-02-11T05:58:55.728Z,100426.23
2018-02-11T06:01:23.372Z,100422.17
2018-02-11T06:03:51.074Z,100421.52
2018-02-11T06:06:18.796Z,100419.63
2018-02-11T06:08:46.491Z,100417.31
2018-02-11T06:11:14.211Z,100420.98
2018-02-11T06:13:41.902Z,100416.08
2018-02-11T06:16:09.540Z,100410.80
2018-02-11T06:18:37.272Z,100413.47
2018-02-11T06:21:05.037Z,100400.57
2018-02-11T06:23:32.698Z,100405.03
2018-02-11T06:26:00.568Z,100395.94
2018-02-11T06:28:28.276Z,100394.89
2018-02-11T06:30:56.009Z,100390.89
2018-02-11T06:33:23.714Z,100385.21
2018-02-11T06:35:51.515Z,100385.00
2018-02-11T06:38:19.179Z,100380.66
2018-02-11T06:40:46.946Z,100383.59
2018-02-11T06:43:14.669Z,100378.83
2018-02-11T06:45:42.369Z,100374.54
2018-02-11T06:48:10.089Z,100367.73
2018-02-11T06:50:37.808Z,100369.44
2018-02-11T06:53:05.575Z,100367.75
2018-02-11T06:55:33.340Z,100365.31
2018-02-11T06:58:01.000Z,100356.07
2018-02-11T07:00:28.612Z,100346.01
2018-02-11T07:02:56.329Z,100342.64
2018-02-11T07:05:23.948Z,100341.11
2018-02-11T07:07:51.708Z,100333.16
2018-02-11T07:10:19.321Z,100328.10
2018-02-11T07:12:46.971Z,100323.93
2018-02-11T07:15:14.694Z,100331.64
2018-02-11T07:17:42.395Z,100323.11
2018-02-11T07:20:10.135Z,100314.56
2018-02-11T07:22:38.142Z,100300.96
2018-02-11T07:25:05.860Z,100289.53
2018-02-11T07:27:33.555Z,100287.38
2018-02-11T07:30:01.337Z,100287.82
2018-02-11T07:32:29.039Z,100284.89
2018-02-11T07:34:56.868Z,100276.34
2018-02-11T07:37:24.573Z,100273.00
2018-02-11T07:39:52.290Z,100275.26
2018-02-11T07:42:20.052Z,100269.88
2018-02-11T07:44:47.821Z,100262.94
2018-02-11T07:47:15.588Z,100259.08
2018-02-11T07:49:43.248Z,100255.66
2018-02-11T07:52:10.876Z,100256.00
2018-02-11T07:54:38.509Z,100240.17
2018-02-11T07:57:06.148Z,100235.52
2018-02-11T07:59:33.772Z,100224.02
2018-02-11T08:02:01.465Z,100229.07
2018-02-11T08:04:29.127Z,100221.05
2018-02-11T08:06:56.760Z,100203.53
2018-02-11T08:09:24.368Z,100188.69
2018-02-11T08:11:51.997Z,100181.42
2018-02-11T08:14:19.616Z,100178.45
2018-02-11T08:16:47.253Z,100175.02
2018-02-11T08:19:14.864Z,100168.05
2018-02-11T08:21:42.518Z,100167.95
2018-02-11T08:24:10.137Z,100162.28
2018-02-11T08:26:37.763Z,100154.38
2018-02-11T08:29:05.372Z,100146.11
2018-02-11T08:31:33.024Z,100148.08
2018-02-11T08:34:00.636Z,100148.69
2018-02-11T08:36:28.261Z,100142.44
2018-02-11T08:38:56.097Z,100129.86
2018-02-11T08:41:23.712Z,100125.31
2018-02-11T08:43:51.422Z,100132.33
2018-02-11T08:46:19.081Z,100116.72
2018-02-11T08:48:46.712Z,100122.88
2018-02-11T08:51:14.332Z,100115.42
2018-02-11T08:53:41.970Z,100116.47
2018-02-11T08:56:09.636Z,100108.13
2018-02-11T08:58:37.292Z,100098.49
2018-02-11T09:01:04.960Z,100099.23
2018-02-11T09:03:32.625Z,100092.56
2018-02-11T09:06:00.241Z,100088.03
2018-02-11T09:08:27.950Z,100073.70
2018-02-11T09:10:55.589Z,100070.02
2018-02-11T09:13:23.201Z,100068.92
2018-02-11T09:15:50.933Z,100063.95
2018-02-11T09:18:18.549Z,100049.24
2018-02-11T09:20:46.188Z,100045.20
2018-02-11T09:23:13.840Z,100036.84
2018-02-11T09:25:41.584Z,100043.38
2018-02-11T09:28:09.200Z,100035.30
2018-02-11T09:30:36.913Z,100039.28
2018-02-11T09:33:04.576Z,100037.22
2018-02-11T09:35:32.241Z,100022.39
2018-02-11T09:37:59.908Z,100019.93
2018-02-11T09:40:27.546Z,100015.78
2018-02-11T09:42:55.171Z,100016.72
2018-02-11T09:45:22.796Z,100006.53
2018-02-11T09:47:50.435Z,100013.46
2018-02-11T09:50:18.094Z,99991.73
2018-02-11T09:52:45.776Z,99992.67
2018-02-11T09:55:13.427Z,100004.72
2018-02-11T09:57:41.056Z,99997.95
2018-02-11T10:00:08.766Z,99996.80
2018-02-11T10:02:36.402Z,99986.61
2018-02-11T10:05:04.093Z,99989.25
2018-02-11T10:07:31.728Z,99976.55
2018-02-11T10:09:59.336Z,99983.11
2018-02-11T10:12:27.076Z,99986.23
2018-02-11T10:14:54.799Z,99977.83
2018-02-11T10:17:22.409Z,99981.83
2018-02-11T10:19:50.016Z,99980.32
2018-02-11T10:22:17.631Z,99975.37
2018-02-11T10:24:45.279Z,99967.38
2018-02-11T10:27:12.913Z,99971.78
2018-02-11T10:29:40.615Z,99967.22
2018-02-11T10:32:08.276Z,99970.41
2018-02-11T10:34:35.911Z,99967.12
2018-02-11T10:37:03.605Z,99964.69
2018-02-11T10:39:31.244Z,99960.03
2018-02-11T10:41:58.859Z,99952.87
2018-02-11T10:44:26.493Z,99954.17
2018-02-11T10:46:54.101Z,99949.13
2018-02-11T10:49:21.803Z,99929.45
2018-02-11T10:51:49.476Z,99935.13
2018-02-11T10:54:17.240Z,99930.06
2018-02-11T10:56:44.904Z,99917.75
2018-02-11T10:59:12.669Z,99923.02
2018-02-11T11:01:40.300Z,99915.84
2018-02-11T11:04:07.996Z,99916.83
2018-02-11T11:06:35.624Z,99918.70
2018-02-11T11:09:03.233Z,99916.25
2018-02-11T11:11:30.866Z,99912.97
2018-02-11T11:13:58.476Z,99904.09
2018-02-11T11:16:26.107Z,99901.25
2018-02-11T11:18:53.764Z,99897.13
2018-02-11T11:21:21.428Z,99892.19
2018-02-11T11:23:49.028Z,99892.39
2018-02-11T11:26:16.663Z,99890.34
2018-02-11T11:28:44.321Z,99894.27
2018-02-11T11:31:11.980Z,99894.27
2018-02-11T11:33:39.593Z,99889.11
2018-02-11T11:36:07.305Z,99880.97
2018-02-11T11:38:35.745Z,99873.73
2018-02-11T11:41:03.352Z,99875.87
2018-02-11T11:43:31.003Z,99863.09
2018-02-11T11:45:58.673Z,99863.19
2018-02-11T11:48:26.616Z,99861.94
2018-02-11T11:50:54.225Z,99861.13
2018-02-11T11:53:21.855Z,99853.78
2018-02-11T11:55:49.522Z,99855.89
2018-02-11T11:58:17.182Z,99849.02
2018-02-11T12:00:44.851Z,99854.59
2018-02-11T12:03:12.485Z,99845.58
2018-02-11T12:05:40.184Z,99849.80
2018-02-11T12:08:07.811Z,99837.27
2018-02-11T12:10:35.412Z,99840.59
2018-02-11T12:13:03.040Z,99838.83
2018-02-11T12:15:30.649Z,99843.03
2018-02-11T12:17:58.393Z,99842.11
2018-02-11T12:20:26.024Z,99835.12
2018-02-11T12:22:53.662Z,99834.64
2018-02-11T12:25:21.373Z,99828.19
2018-02-11T12:27:48.974Z,99826.48
2018-02-11T12:30:16.596Z,99833.34
2018-02-11T12:32:44.269Z,99831.59
2018-02-11T12:35:11.928Z,99831.91
2018-02-11T12:37:39.592Z,99823.19
2018-02-11T12:40:07.219Z,99820.55
2018-02-11T12:42:34.819Z,99832.83
2018-02-11T12:45:02.478Z,99827.16
2018-02-11T12:47:30.080Z,99822.86
2018-02-11T12:49:57.710Z,99825.33
2018-02-11T12:52:25.324Z,99820.94
2018-02-11T12:54:53.028Z,99817.45
2018-02-11T12:57:20.640Z,99812.65
2018-02-11T12:59:48.357Z,99805.69
2018-02-11T13:02:15.959Z,99812.47
2018-02-11T13:04:43.676Z,99810.27
2018-02-11T13:07:11.305Z,99810.17
2018-02-11T13:09:38.903Z,99800.65
2018-02-11T13:12:07.076Z,99801.44
2018-02-11T13:14:34.688Z,99803.95
2018-02-11T13:17:02.308Z,99806.85
2018-02-11T13:19:29.921Z,99804.65
2018-02-11T13:21:57.553Z,99801.95
2018-02-11T13:24:25.151Z,99806.50
2018-02-11T13:26:52.780Z,99795.19
2018-02-11T13:29:20.383Z,99798.94
2018-02-11T13:31:48.062Z,99799.29
2018-02-11T13:34:15.672Z,99797.05
2018-02-11T13:36:43.402Z,99802.98
2018-02-11T13:39:11.012Z,99800.34
2018-02-11T13:41:38.620Z,99801.56
2018-02-11T13:44:06.284Z,99798.88
2018-02-11T13:46:33.897Z,99790.64
2018-02-11T13:49:01.529Z,99802.91
2018-02-11T13:51:29.136Z,99798.94
2018-02-11T13:53:56.760Z,99794.52
2018-02-11T13:56:24.367Z,99794.34
2018-02-11T13:58:51.995Z,99795.48
2018-02-11T14:01:19.707Z,99802.58
2018-02-11T14:03:47.336Z,99789.14
2018-02-11T14:06:15.046Z,99793.33
2018-02-11T14:08:42.681Z,99800.42
2018-02-11T14:11:10.364Z,99798.20
2018-02-11T14:13:37.999Z,99798.44
2018-02-11T14:16:05.620Z,99803.05
2018-02-11T14:18:33.347Z,99801.65
2018-02-11T14:21:01.021Z,99796.00
2018-02-11T14:23:28.652Z,99794.59
2018-02-11T14:25:56.256Z,99791.98
2018-02-11T14:28:23.905Z,99792.32
2018-02-11T14:30:51.528Z,99792.25
2018-02-11T14:33:19.140Z,99789.63
2018-02-11T14:35:46.793Z,99793.88
2018-02-11T14:38:14.412Z,99788.27
2018-02-11T14:40:42.044Z,99786.91
2018-02-11T14:43:09.661Z,99792.31
2018-02-11T14:45:37.340Z,99792.63
2018-02-11T14:48:05.000Z,99792.59
2018-02-11T14:50:32.633Z,99792.18
2018-02-11T14:53:00.329Z,99784.06
2018-02-11T14:55:27.992Z,99797.72
2018-02-11T14:57:55.652Z,99794.25
2018-02-11T15:00:23.275Z,99789.98
2018-02-11T15:02:50.980Z,99796.39
2018-02-11T15:05:18.641Z,99791.27
2018-02-11T15:07:46.249Z,99788.71
2018-02-11T15:10:13.959Z,99788.71
2018-02-11T15:12:41.579Z,99789.62
2018-02-11T15:15:09.292Z,99789.62
2018-02-11T15:17:36.980Z,99786.22
2018-02-11T15:20:04.623Z,99790.47
2018-02-11T15:22:32.247Z,99790.49
2018-02-11T15:24:59.858Z,99794.75
2018-02-11T15:27:27.509Z,99793.09
2018-02-11T15:29:55.169Z,99794.75
2018-02-11T15:32:22.812Z,99792.18
2018-02-11T15:34:50.493Z,99800.29
2018-02-11T15:37:18.124Z,99800.29
2018-02-11T15:39:47.237Z,99790.42
2018-02-11T15:42:14.916Z,99795.52
2018-02-11T15:44:42.528Z,99793.41
2018-02-11T15:47:10.161Z,99794.73
2018-02-11T15:49:37.773Z,99789.14
2018-02-11T15:52:05.377Z,99791.75
2018-02-11T15:54:33.015Z,99791.69
2018-02-11T15:57:00.683Z,99791.25
2018-02-11T15:59:28.321Z,99791.25
2018-02-11T16:01:55.928Z,99790.77
2018-02-11T16:04:23.551Z,99788.62
2018-02-11T16:06:51.232Z,99795.02
2018-02-11T16:09:18.902Z,99789.49
2018-02-11T16:11:46.556Z,99794.62
2018-02-11T16:14:14.193Z,99795.05
2018-02-11T16:16:41.817Z,99796.80
2018-02-11T16:19:09.454Z,99788.71
2018-02-11T16:21:37.102Z,99798.17
2018-02-11T16:24:04.747Z,99802.93
2018-02-11T16:26:32.370Z,99803.80
2018-02-11T16:28:59.991Z,99802.56
2018-02-11T16:31:27.651Z,99800.02
2018-02-11T16:33:55.280Z,99805.16
2018-02-11T16:36:22.887Z,99809.42
2018-02-11T16:38:50.524Z,99805.16
2018-02-11T16:41:18.199Z,99808.58
2018-02-11T16:43:45.833Z,99802.16
2018-02-11T16:46:13.465Z,99801.72
2018-02-11T16:48:41.152Z,99803.42
2018-02-11T16:51:08.746Z,99805.13
2018-02-11T16:53:36.411Z,99803.06
2018-02-11T16:56:04.035Z,99809.11
2018-02-11T16:58:31.738Z,99810.42
2018-02-11T17:00:59.412Z,99816.03
2018-02-11T17:03:27.073Z,99809.70
2018-02-11T17:05:54.700Z,99810.14
2018-02-11T17:08:22.312Z,99809.34
2018-02-11T17:10:49.954Z,99817.47
2018-02-11T17:13:17.569Z,99817.95
2018-02-11T17:15:45.199Z,99815.83
2018-02-11T17:18:12.848Z,99822.25
2018-02-11T17:20:40.509Z,99825.28
2018-02-11T17:23:08.159Z,99827.44
2018-02-11T17:25:35.833Z,99831.72
2018-02-11T17:28:03.485Z,99821.93
2018-02-11T17:30:31.087Z,99823.66
2018-02-11T17:32:58.820Z,99828.42
2018-02-11T17:35:26.428Z,99821.17
2018-02-11T17:37:54.145Z,99822.08
2018-02-11T17:40:21.747Z,99821.22
2018-02-11T17:42:49.465Z,99823.70
2018-02-11T17:45:17.137Z,99829.16
2018-02-11T17:47:44.760Z,99832.08
2018-02-11T17:50:12.372Z,99827.72
2018-02-11T17:52:40.006Z,99833.61
2018-02-11T17:55:07.701Z,99830.08
2018-02-11T17:57:35.335Z,99829.14
2018-02-11T18:00:02.948Z,99835.91
2018-02-11T18:02:30.765Z,99833.33
2018-02-11T18:04:58.396Z,99839.67
2018-02-11T18:07:26.095Z,99837.95
2018-02-11T18:09:53.752Z,99843.02
2018-02-11T18:12:21.360Z,99833.56
2018-02-11T18:14:48.996Z,99835.67
2018-02-11T18:17:16.598Z,99842.87
2018-02-11T18:19:44.233Z,99837.25
2018-02-11T18:22:11.830Z,99835.90
2018-02-11T18:24:39.536Z,99834.11
2018-02-11T18:27:07.136Z,99842.16
2018-02-11T18:29:34.769Z,99833.55
2018-02-11T18:32:02.377Z,99834.33
2018-02-11T18:34:30.085Z,99832.97
2018-02-11T18:36:57.742Z,99834.66
2018-02-11T18:39:25.451Z,99829.89
2018-02-11T18:41:53.051Z,99837.13
2018-02-11T18:44:20.737Z,99837.86
2018-02-11T18:46:48.404Z,99839.12
2018-02-11T18:49:16.060Z,99831.80
2018-02-11T18:51:43.715Z,99833.92
2018-02-11T18:54:11.388Z,99836.50
2018-02-11T18:56:39.000Z,99844.97
2018-02-11T18:59:06.598Z,99838.55
2018-02-11T19:01:34.248Z,99841.91
2018-02-11T19:04:01.864Z,99842.73
2018-02-11T19:06:29.601Z,99849.08
2018-02-11T19:08:57.255Z,99850.77
2018-02-11T19:11:25.080Z,99853.33
2018-02-11T19:13:52.692Z,99856.70
2018-02-11T19:16:20.444Z,99854.59
2018-02-11T19:18:48.114Z,99856.74
2018-02-11T19:21:15.739Z,99858.02
2018-02-11T19:23:43.508Z,99858.05
2018-02-11T19:26:11.172Z,99861.17
2018-02-11T19:28:38.829Z,99859.95
2018-02-11T19:31:06.459Z,99863.83
2018-02-11T19:33:34.092Z,99865.52
2018-02-11T19:36:01.733Z,99865.52
2018-02-11T19:38:29.420Z,99859.45
2018-02-11T19:40:57.029Z,99861.94
2018-02-11T19:43:24.735Z,99869.55
2018-02-11T19:45:52.400Z,99867.33
2018-02-11T19:48:20.075Z,99876.17
2018-02-11T19:50:47.733Z,99872.67
2018-02-11T19:53:15.360Z,99873.84
2018-02-11T19:55:43.065Z,99877.20
2018-02-11T19:58:10.696Z,99874.98
2018-02-11T20:00:38.304Z,99884.72
2018-02-11T20:03:06.049Z,99892.30
2018-02-11T20:05:33.707Z,99890.09
2018-02-11T20:08:01.340Z,99895.15
2018-02-11T20:10:28.964Z,99887.80
2018-02-11T20:12:56.596Z,99889.02
2018-02-11T20:15:24.199Z,99889.84
2018-02-11T20:17:51.911Z,99889.77
2018-02-11T20:20:19.536Z,99891.39
2018-02-11T20:22:47.136Z,99892.24
2018-02-11T20:25:14.773Z,99897.73
2018-02-11T20:27:42.372Z,99893.03
2018-02-11T20:30:10.023Z,99901.97
2018-02-11T20:32:37.688Z,99910.45
2018-02-11T20:35:05.320Z,99907.00
2018-02-11T20:37:32.928Z,99909.06
2018-02-11T20:40:00.585Z,99906.00
2018-02-11T20:42:28.191Z,99914.52
2018-02-11T20:44:55.824Z,99918.72
2018-02-11T20:47:23.428Z,99918.25
2018-02-11T20:49:51.128Z,99916.55
2018-02-11T20:52:18.728Z,99924.17
2018-02-11T20:54:46.379Z,99927.58
2018-02-11T20:57:13.980Z,99926.23
2018-02-11T20:59:41.583Z,99919.80
2018-02-11T21:02:09.212Z,99927.84
2018-02-11T21:04:36.815Z,99922.64
2018-02-11T21:07:04.435Z,99913.67
2018-02-11T21:09:32.044Z,99922.98
2018-02-11T21:11:59.689Z,99921.27
2018-02-11T21:14:27.288Z,99922.95
2018-02-11T21:16:55.011Z,99917.78
2018-02-11T21:19:22.614Z,99923.28
2018-02-11T21:21:50.248Z,99920.20
2018-02-11T21:24:17.897Z,99924.83
2018-02-11T21:26:45.528Z,99931.98
2018-02-11T21:29:13.145Z,99934.05
2018-02-11T21:31:40.771Z,99934.44
2018-02-11T21:34:08.439Z,99939.06
2018-02-11T21:36:36.097Z,99941.12
2018-02-11T21:39:03.716Z,99944.45
2018-02-11T21:41:31.329Z,99941.38
2018-02-11T21:43:58.951Z,99944.32
2018-02-11T21:46:26.565Z,99937.86
2018-02-11T21:48:54.197Z,99942.47
2018-02-11T21:51:21.880Z,99944.14
2018-02-11T21:53:49.508Z,99947.05
2018-02-11T21:56:17.204Z,99955.07
2018-02-11T21:58:44.827Z,99954.55
2018-02-11T22:01:12.432Z,99965.21
2018-02-11T22:03:40.069Z,99957.94
2018-02-11T22:06:07.753Z,99966.82
2018-02-11T22:08:35.388Z,99965.52
2018-02-11T22:11:02.997Z,99963.76
2018-02-11T22:13:30.640Z,99963.31
2018-02-11T22:15:58.760Z,99963.72
2018-02-11T22:18:26.359Z,99971.33
2018-02-11T22:20:53.992Z,99971.72
2018-02-11T22:23:21.590Z,99973.34
2018-02-11T22:25:49.216Z,99977.54
2018-02-11T22:28:16.932Z,99979.21
2018-02-11T22:30:44.570Z,99979.99
2018-02-11T22:33:12.184Z,99980.33
2018-02-11T22:35:39.813Z,99979.48
2018-02-11T22:38:07.424Z,99980.30
2018-02-11T22:40:35.052Z,99985.36
2018-02-11T22:43:02.655Z,99986.59
2018-02-11T22:45:30.360Z,99985.25
2018-02-11T22:47:58.020Z,99992.03
2018-02-11T22:50:25.677Z,99982.17
2018-02-11T22:52:53.279Z,99986.76
2018-02-11T22:55:21.008Z,99989.71
2018-02-11T22:57:48.672Z,99984.09
2018-02-11T23:00:16.307Z,99995.95
2018-02-11T23:02:43.917Z,99983.14
2018-02-11T23:05:11.552Z,99987.38
2018-02-11T23:07:39.161Z,99988.61
2018-02-11T23:10:06.875Z,99993.25
2018-02-11T23:12:34.550Z,100005.55
2018-02-11T23:15:02.208Z,100007.22
2018-02-11T23:17:29.848Z,100008.85
2018-02-11T23:19:57.469Z,100019.05
2018-02-11T23:22:25.200Z,100008.81
2018-02-11T23:24:52.873Z,100011.66
2018-02-11T23:27:20.503Z,100015.48
2018-02-11T23:29:48.184Z,100014.17
2018-02-11T23:32:15.817Z,100022.59
2018-02-11T23:34:43.431Z,100020.03
2018-02-11T23:37:11.177Z,100018.70
2018-02-11T23:39:38.840Z,100020.78
2018-02-11T23:42:06.475Z,100021.20
2018-02-11T23:44:34.079Z,100024.55
2018-02-11T23:47:01.819Z,100025.30
2018-02-11T23:49:29.492Z,100030.89
2018-02-11T23:51:57.128Z,100040.97
2018-02-11T23:54:24.915Z,100037.95
2018-02-11T23:56:52.548Z,100042.58
2018-02-11T23:59:20.190Z,100047.22
